Portada
METAR-TAF:

METAR-TAF

Aeroports :

Sapporo, Japó

latitud: 43-07N, longitud: 141-23E, altitud: 8 m

Observació

L'informe es va fer fa 24 minuts, a les 07:00 UTC
Vent 16 kt del Oest/Nord-Oest amb ràfegues de 28 kt
Temperatura -4°C
Humitat 63%
Pressió 1026 hPa
Visibilitat: 9000 m
Escasses núvols a una alçada de 1200 ft
Cel ennuvolat a una alçada de 4000 ft

METAR: RJCO 250700Z 29016G28KT 9000 FEW012 BKN040 M04/M10 Q1026

Hora: 16:24 (07:24 UTC)


TAF: manca

Observacions i pronòstics meteorològics de més de 4000 aeroports (METAR i TAF).

Les estacions disponibles són els punts grocs i vermells al mapa.

Posi el ratolí al punt desitjat per veure el nom de l'estació.

Feu clic per veure les observacions i els pronòstics meteorològics.

Per canviar el mapa: feu clic els botons verds amb una creu de color negre per apropar; al botó verd amb un guió per allunyar la imatge; o en les fletxes verdes per a mapes adjacents.


METAR-TAF: